createdAt,value
2019-03-13T00:00:00.695Z,38.75
2019-03-13T00:01:00.755Z,38.8
2019-03-13T00:02:00.576Z,38.75
2019-03-13T00:03:00.655Z,38.76
2019-03-13T00:04:00.410Z,38.76
2019-03-13T00:05:00.651Z,38.73
2019-03-13T00:06:00.931Z,38.78
2019-03-13T00:07:00.434Z,38.72
2019-03-13T00:08:00.591Z,38.71
2019-03-13T00:09:00.617Z,38.79
2019-03-13T00:10:00.475Z,38.81
2019-03-13T00:11:00.661Z,38.77
2019-03-13T00:12:00.624Z,38.78
2019-03-13T00:13:00.815Z,38.74
2019-03-13T00:14:00.500Z,38.75
2019-03-13T00:15:00.757Z,38.81
2019-03-13T00:16:00.551Z,38.8
2019-03-13T00:17:00.719Z,38.83
2019-03-13T00:18:00.514Z,38.81
2019-03-13T00:19:00.550Z,38.8
2019-03-13T00:20:00.703Z,38.83
2019-03-13T00:21:00.549Z,38.79
2019-03-13T00:22:00.569Z,38.76
2019-03-13T00:23:00.699Z,38.77
2019-03-13T00:24:00.509Z,38.83
2019-03-13T00:25:00.848Z,38.82
2019-03-13T00:26:00.743Z,38.77
2019-03-13T00:27:00.596Z,38.79
2019-03-13T00:28:00.595Z,38.85
2019-03-13T00:29:00.512Z,38.77
2019-03-13T00:30:02.093Z,38.76
2019-03-13T00:31:00.684Z,38.79
2019-03-13T00:32:00.432Z,38.8
2019-03-13T00:33:00.611Z,38.84
2019-03-13T00:34:00.905Z,38.85
2019-03-13T00:35:00.459Z,38.7
2019-03-13T00:36:00.598Z,38.79
2019-03-13T00:37:00.737Z,38.77
2019-03-13T00:38:00.477Z,38.79
2019-03-13T00:39:00.661Z,38.76
2019-03-13T00:40:00.704Z,38.78
2019-03-13T00:41:00.523Z,38.8
2019-03-13T00:42:00.622Z,38.74
2019-03-13T00:43:00.784Z,38.82
2019-03-13T00:44:00.642Z,38.8
2019-03-13T00:45:00.991Z,38.81
2019-03-13T00:46:00.889Z,38.77
2019-03-13T00:47:00.492Z,38.73
2019-03-13T00:48:00.636Z,38.79
2019-03-13T00:49:00.421Z,38.75
2019-03-13T00:50:00.639Z,38.75
2019-03-13T00:51:00.695Z,38.76
2019-03-13T00:52:00.519Z,38.76
2019-03-13T00:53:00.485Z,38.76
2019-03-13T00:54:00.642Z,38.77
2019-03-13T00:55:00.440Z,38.78
2019-03-13T00:56:00.499Z,38.85
2019-03-13T00:57:00.697Z,38.79
2019-03-13T00:58:00.518Z,38.79
2019-03-13T00:59:00.523Z,38.76
2019-03-13T01:00:00.759Z,38.87
2019-03-13T01:01:04.025Z,38.81
2019-03-13T01:02:00.670Z,38.86
2019-03-13T01:03:00.664Z,38.87
2019-03-13T01:04:03.152Z,38.85
2019-03-13T01:05:00.588Z,38.83
2019-03-13T01:06:00.755Z,38.77
2019-03-13T01:07:00.481Z,38.79
2019-03-13T01:08:00.590Z,38.79
2019-03-13T01:09:00.693Z,38.77
2019-03-13T01:10:00.537Z,38.86
2019-03-13T01:11:00.404Z,38.77
2019-03-13T01:12:00.697Z,38.86
2019-03-13T01:13:00.586Z,38.82
2019-03-13T01:14:00.636Z,38.83
2019-03-13T01:15:00.532Z,38.76
2019-03-13T01:16:00.571Z,38.78
2019-03-13T01:17:00.719Z,38.79
2019-03-13T01:18:00.491Z,38.81
2019-03-13T01:19:00.702Z,38.81
2019-03-13T01:20:00.733Z,38.77
2019-03-13T01:21:00.453Z,38.78
2019-03-13T01:22:00.605Z,38.82
2019-03-13T01:23:00.439Z,38.78
2019-03-13T01:24:00.802Z,38.81
2019-03-13T01:25:00.670Z,38.81
2019-03-13T01:26:00.463Z,38.89
2019-03-13T01:27:00.391Z,38.86
2019-03-13T01:28:00.626Z,38.84
2019-03-13T01:29:00.501Z,38.85
2019-03-13T01:30:00.517Z,38.83
2019-03-13T01:31:00.426Z,38.86
2019-03-13T01:32:00.528Z,38.86
2019-03-13T01:33:00.504Z,38.84
2019-03-13T01:34:00.847Z,38.87
2019-03-13T01:35:00.481Z,38.81
2019-03-13T01:36:00.551Z,38.81
2019-03-13T01:37:00.704Z,38.84
2019-03-13T01:38:00.705Z,38.87
2019-03-13T01:39:01.170Z,38.86
2019-03-13T01:40:00.694Z,38.85
2019-03-13T01:41:00.520Z,38.88
2019-03-13T01:42:00.538Z,38.88
2019-03-13T01:43:00.718Z,38.82
2019-03-13T01:44:00.574Z,38.88
2019-03-13T01:45:00.550Z,38.9
2019-03-13T01:46:00.521Z,38.83
2019-03-13T01:47:00.507Z,38.86
2019-03-13T01:48:00.564Z,38.88
2019-03-13T01:49:00.401Z,38.94
2019-03-13T01:50:00.580Z,38.89
2019-03-13T01:51:00.573Z,38.87
2019-03-13T01:52:00.449Z,38.86
2019-03-13T01:53:00.571Z,38.85
2019-03-13T01:54:00.745Z,38.89
2019-03-13T01:55:00.511Z,38.94
2019-03-13T01:56:00.647Z,38.86
2019-03-13T01:57:00.650Z,38.88
2019-03-13T01:58:00.595Z,38.9
2019-03-13T01:59:00.444Z,38.9
2019-03-13T02:00:00.699Z,38.85
2019-03-13T02:01:00.622Z,38.87
2019-03-13T02:02:00.644Z,38.83
2019-03-13T02:03:00.503Z,38.86
2019-03-13T02:04:00.600Z,38.87
2019-03-13T02:05:00.675Z,38.85
2019-03-13T02:06:00.495Z,38.92
2019-03-13T02:07:00.548Z,38.94
2019-03-13T02:08:00.660Z,38.87
2019-03-13T02:09:00.493Z,38.9
2019-03-13T02:10:00.488Z,38.87
2019-03-13T02:11:00.723Z,38.91
2019-03-13T02:12:00.580Z,38.9
2019-03-13T02:13:00.582Z,38.97
2019-03-13T02:14:00.518Z,38.97
2019-03-13T02:15:00.554Z,38.94
2019-03-13T02:16:00.711Z,38.94
2019-03-13T02:17:00.452Z,38.91
2019-03-13T02:18:00.398Z,38.95
2019-03-13T02:19:00.600Z,38.97
2019-03-13T02:20:00.551Z,38.86
2019-03-13T02:21:00.536Z,38.94
2019-03-13T02:22:00.691Z,38.93
2019-03-13T02:23:00.555Z,38.96
2019-03-13T02:24:00.563Z,38.95
2019-03-13T02:25:00.719Z,38.92
2019-03-13T02:26:00.467Z,38.9
2019-03-13T02:27:00.529Z,38.99
2019-03-13T02:28:00.723Z,38.98
2019-03-13T02:29:00.499Z,38.94
2019-03-13T02:30:01.050Z,38.97
2019-03-13T02:31:00.498Z,38.94
2019-03-13T02:32:00.763Z,38.93
2019-03-13T02:33:00.651Z,38.91
2019-03-13T02:34:00.470Z,38.94
2019-03-13T02:35:00.492Z,39
2019-03-13T02:36:00.731Z,38.98
2019-03-13T02:37:00.439Z,39.03
2019-03-13T02:38:00.431Z,38.94
2019-03-13T02:39:00.588Z,38.99
2019-03-13T02:40:00.817Z,38.94
2019-03-13T02:41:00.536Z,38.96
2019-03-13T02:42:00.676Z,39.01
2019-03-13T02:43:00.532Z,38.97
2019-03-13T02:44:00.614Z,38.97
2019-03-13T02:45:00.964Z,38.93
2019-03-13T02:46:00.591Z,38.98
2019-03-13T02:47:00.668Z,38.97
2019-03-13T02:48:00.379Z,38.95
2019-03-13T02:49:00.505Z,38.96
2019-03-13T02:50:00.603Z,39.05
2019-03-13T02:51:00.667Z,39
2019-03-13T02:52:00.468Z,38.99
2019-03-13T02:53:00.709Z,38.95
2019-03-13T02:54:00.433Z,38.95
2019-03-13T02:55:00.588Z,38.99
2019-03-13T02:56:00.399Z,39
2019-03-13T02:57:00.454Z,38.94
2019-03-13T02:58:00.896Z,39.03
2019-03-13T02:59:00.473Z,38.92
2019-03-13T03:00:00.649Z,38.95
2019-03-13T03:01:00.874Z,38.97
2019-03-13T03:02:00.459Z,38.9
2019-03-13T03:03:00.399Z,38.98
2019-03-13T03:04:00.606Z,38.95
2019-03-13T03:05:00.559Z,38.94
2019-03-13T03:06:00.918Z,39.06
2019-03-13T03:07:01.074Z,38.95
2019-03-13T03:08:00.490Z,38.94
2019-03-13T03:09:00.524Z,39
2019-03-13T03:10:00.666Z,39.04
2019-03-13T03:11:00.512Z,39.06
2019-03-13T03:12:00.551Z,38.99
2019-03-13T03:13:00.431Z,39.03
2019-03-13T03:14:00.460Z,38.92
2019-03-13T03:15:00.639Z,39.05
2019-03-13T03:16:00.489Z,39.02
2019-03-13T03:17:00.500Z,38.98
2019-03-13T03:18:00.557Z,38.97
2019-03-13T03:19:00.379Z,38.99
2019-03-13T03:20:00.789Z,38.94
2019-03-13T03:21:00.610Z,39.01
2019-03-13T03:22:00.428Z,39.01
2019-03-13T03:23:00.541Z,39
2019-03-13T03:24:00.561Z,38.99
2019-03-13T03:25:00.721Z,38.96
2019-03-13T03:26:00.555Z,39.03
2019-03-13T03:27:00.738Z,38.97
2019-03-13T03:28:00.451Z,38.98
2019-03-13T03:29:00.572Z,39.01
2019-03-13T03:30:01.225Z,38.99
2019-03-13T03:31:00.448Z,38.98
2019-03-13T03:32:00.563Z,38.98
2019-03-13T03:33:00.678Z,39.01
2019-03-13T03:34:00.483Z,39
2019-03-13T03:35:01.580Z,38.97
2019-03-13T03:36:00.448Z,38.99
2019-03-13T03:37:00.593Z,39.03
2019-03-13T03:38:00.584Z,39.01
2019-03-13T03:39:00.472Z,39.02
2019-03-13T03:40:00.577Z,39.02
2019-03-13T03:41:00.669Z,39
2019-03-13T03:42:00.496Z,39.01
2019-03-13T03:43:00.394Z,39.01
2019-03-13T03:44:00.705Z,39.01
2019-03-13T03:45:00.763Z,38.97
2019-03-13T03:46:00.690Z,39.03
2019-03-13T03:47:00.638Z,38.97
2019-03-13T03:48:00.504Z,38.99
2019-03-13T03:49:00.630Z,38.99
2019-03-13T03:50:00.909Z,39.03
2019-03-13T03:51:00.503Z,38.96
2019-03-13T03:52:00.544Z,38.97
2019-03-13T03:53:00.405Z,39.03
2019-03-13T03:54:00.629Z,39.01
2019-03-13T03:55:00.836Z,38.95
2019-03-13T03:56:00.389Z,38.98
2019-03-13T03:57:00.525Z,39.04
2019-03-13T03:58:00.719Z,39.01
2019-03-13T03:59:00.483Z,39.02
2019-03-13T04:00:00.608Z,39.05
2019-03-13T04:01:00.559Z,38.98
2019-03-13T04:02:00.432Z,39
2019-03-13T04:03:00.600Z,39.08
2019-03-13T04:04:00.541Z,39
2019-03-13T04:05:00.937Z,39.06
2019-03-13T04:06:00.550Z,38.98
2019-03-13T04:07:00.343Z,39.04
2019-03-13T04:08:00.552Z,39.01
2019-03-13T04:09:00.612Z,39.05
2019-03-13T04:10:00.505Z,39.02
2019-03-13T04:11:00.385Z,38.97
2019-03-13T04:12:00.754Z,39.03
2019-03-13T04:13:00.576Z,39.02
2019-03-13T04:14:00.557Z,38.99
2019-03-13T04:15:00.576Z,39.03
2019-03-13T04:16:00.366Z,38.99
2019-03-13T04:17:00.542Z,38.99
2019-03-13T04:18:00.591Z,38.93
2019-03-13T04:19:00.372Z,39.04
2019-03-13T04:20:00.814Z,38.94
2019-03-13T04:21:00.642Z,38.98
2019-03-13T04:22:00.395Z,38.94
2019-03-13T04:23:00.467Z,39.03
2019-03-13T04:24:00.609Z,39.07
2019-03-13T04:25:00.643Z,39.05
2019-03-13T04:26:00.579Z,39.07
2019-03-13T04:27:00.658Z,39.11
2019-03-13T04:28:00.416Z,39.09
2019-03-13T04:29:00.501Z,39.06
2019-03-13T04:30:00.786Z,39.07
2019-03-13T04:31:00.399Z,39.09
2019-03-13T04:32:00.550Z,39.02
2019-03-13T04:33:00.597Z,39.01
2019-03-13T04:34:00.413Z,39.07
2019-03-13T04:35:00.917Z,39.04
2019-03-13T04:36:00.773Z,39.03
2019-03-13T04:37:00.476Z,39.03
2019-03-13T04:38:00.541Z,38.98
2019-03-13T04:39:00.643Z,39.03
2019-03-13T04:40:00.523Z,39
2019-03-13T04:41:00.500Z,38.99
2019-03-13T04:42:00.612Z,38.93
2019-03-13T04:43:00.461Z,38.97
2019-03-13T04:44:00.629Z,38.95
2019-03-13T04:45:00.434Z,38.99
2019-03-13T04:46:00.492Z,38.85
2019-03-13T04:47:00.585Z,38.89
2019-03-13T04:48:00.433Z,38.9
2019-03-13T04:49:00.485Z,38.89
2019-03-13T04:50:00.670Z,38.91
2019-03-13T04:51:00.407Z,38.89
2019-03-13T04:52:00.612Z,38.96
2019-03-13T04:53:00.449Z,38.93
2019-03-13T04:54:00.414Z,38.9
2019-03-13T04:55:00.591Z,38.97
2019-03-13T04:56:00.383Z,39
2019-03-13T04:57:00.912Z,39.05
2019-03-13T04:58:00.637Z,38.99
2019-03-13T04:59:00.426Z,38.99
2019-03-13T05:00:00.449Z,38.99
2019-03-13T05:01:00.604Z,39.02
2019-03-13T05:02:00.398Z,39.01
2019-03-13T05:03:00.571Z,39.01
2019-03-13T05:04:00.535Z,39.03
2019-03-13T05:05:00.446Z,39.07
2019-03-13T05:06:00.551Z,38.98
2019-03-13T05:07:00.664Z,39.01
2019-03-13T05:08:00.442Z,39.04
2019-03-13T05:09:00.495Z,39.04
2019-03-13T05:10:00.555Z,39.06
2019-03-13T05:11:00.775Z,39.07
2019-03-13T05:12:00.553Z,39.03
2019-03-13T05:13:00.460Z,39.04
2019-03-13T05:14:00.485Z,39.02
2019-03-13T05:15:00.517Z,39.04
2019-03-13T05:16:00.340Z,38.96
2019-03-13T05:17:00.533Z,38.98
2019-03-13T05:18:00.497Z,39.06
2019-03-13T05:19:00.445Z,39.02
2019-03-13T05:20:00.575Z,38.93
2019-03-13T05:21:00.619Z,38.94
2019-03-13T05:22:00.324Z,38.96
2019-03-13T05:23:00.458Z,38.98
2019-03-13T05:24:00.623Z,38.97
2019-03-13T05:25:00.389Z,38.98
2019-03-13T05:26:00.549Z,38.94
2019-03-13T05:27:00.631Z,38.96
2019-03-13T05:28:00.356Z,38.92
2019-03-13T05:29:00.686Z,38.62
2019-03-13T05:30:00.889Z,37.04
2019-03-13T05:31:00.404Z,37.42
2019-03-13T05:32:00.528Z,37.34
2019-03-13T05:33:00.506Z,37.31
2019-03-13T05:34:00.365Z,37.37
2019-03-13T05:35:00.580Z,36.84
2019-03-13T05:36:00.622Z,36.85
2019-03-13T05:37:00.429Z,36.96
2019-03-13T05:38:00.540Z,36.29
2019-03-13T05:39:00.385Z,35.91
2019-03-13T05:40:00.566Z,35.76
2019-03-13T05:41:00.779Z,35.92
2019-03-13T05:42:00.592Z,35.74
2019-03-13T05:43:00.652Z,35.66
2019-03-13T05:44:00.487Z,35.81
2019-03-13T05:45:00.494Z,36.02
2019-03-13T05:46:00.521Z,35.9
2019-03-13T05:47:00.365Z,36.23
2019-03-13T05:48:00.483Z,36.34
2019-03-13T05:49:00.523Z,36.54
2019-03-13T05:50:00.567Z,36.75
2019-03-13T05:51:00.467Z,36.82
2019-03-13T05:52:00.727Z,36.92
2019-03-13T05:53:00.360Z,37.02
2019-03-13T05:54:00.502Z,37.1
2019-03-13T05:55:00.531Z,37.17
2019-03-13T05:56:00.507Z,37.15
2019-03-13T05:57:00.497Z,37.18
2019-03-13T05:58:00.644Z,37.22
2019-03-13T05:59:00.378Z,37.26
2019-03-13T06:00:00.608Z,37.25
2019-03-13T06:01:00.542Z,37.27
2019-03-13T06:02:00.378Z,37.37
2019-03-13T06:03:00.512Z,37.43
2019-03-13T06:04:00.432Z,37.41
2019-03-13T06:05:00.651Z,37.4
2019-03-13T06:06:00.555Z,37.39
2019-03-13T06:07:00.682Z,37.52
2019-03-13T06:08:00.410Z,37.52
2019-03-13T06:09:00.564Z,37.54
2019-03-13T06:10:00.681Z,37.53
2019-03-13T06:11:00.457Z,37.6
2019-03-13T06:12:01.646Z,37.54
2019-03-13T06:13:00.463Z,37.63
2019-03-13T06:14:00.449Z,37.64
2019-03-13T06:15:03.910Z,37.66
2019-03-13T06:16:00.366Z,37.64
2019-03-13T06:17:00.483Z,37.65
2019-03-13T06:18:00.633Z,37.66
2019-03-13T06:19:00.421Z,37.71
2019-03-13T06:20:00.726Z,37.68
2019-03-13T06:21:00.277Z,37.73
2019-03-13T06:22:00.508Z,37.71
2019-03-13T06:23:00.609Z,37.73
2019-03-13T06:24:00.334Z,37.69
2019-03-13T06:25:00.496Z,37.76
2019-03-13T06:26:00.487Z,37.78
2019-03-13T06:27:00.340Z,37.8
2019-03-13T06:28:00.469Z,37.75
2019-03-13T06:29:00.491Z,37.79
2019-03-13T06:30:00.618Z,37.87
2019-03-13T06:31:00.530Z,37.77
2019-03-13T06:32:00.485Z,37.9
2019-03-13T06:33:00.463Z,37.9
2019-03-13T06:34:00.456Z,37.89
2019-03-13T06:35:00.767Z,37.92
2019-03-13T06:36:00.465Z,37.92
2019-03-13T06:37:00.539Z,37.9
2019-03-13T06:38:00.580Z,37.92
2019-03-13T06:39:00.501Z,37.94
2019-03-13T06:40:00.612Z,37.92
2019-03-13T06:41:00.424Z,37.95
2019-03-13T06:42:00.342Z,37.95
2019-03-13T06:43:00.495Z,37.95
2019-03-13T06:44:00.325Z,37.97
2019-03-13T06:45:00.446Z,37.97
2019-03-13T06:46:00.536Z,37.99
2019-03-13T06:47:00.401Z,37.99
2019-03-13T06:48:00.461Z,38.04
2019-03-13T06:49:00.948Z,38.02
2019-03-13T06:50:00.421Z,38
2019-03-13T06:51:00.435Z,37.93
2019-03-13T06:52:00.573Z,38.05
2019-03-13T06:53:00.382Z,38.08
2019-03-13T06:54:00.403Z,38.05
2019-03-13T06:55:00.967Z,38.09
2019-03-13T06:56:00.483Z,38.06
2019-03-13T06:57:00.558Z,38.09
2019-03-13T06:58:00.391Z,38.12
2019-03-13T06:59:00.458Z,38.13
2019-03-13T07:00:00.452Z,38.19
2019-03-13T07:01:00.335Z,38.17
2019-03-13T07:02:00.481Z,38.16
2019-03-13T07:03:00.500Z,38.11
2019-03-13T07:04:00.274Z,38.19
2019-03-13T07:05:00.670Z,38.18
2019-03-13T07:06:00.641Z,38.16
2019-03-13T07:07:00.323Z,38.2
2019-03-13T07:08:00.551Z,38.23
2019-03-13T07:09:00.821Z,38.2
2019-03-13T07:10:00.379Z,38.23
2019-03-13T07:11:00.509Z,38.2
2019-03-13T07:12:00.263Z,38.28
2019-03-13T07:13:00.465Z,38.21
2019-03-13T07:14:00.463Z,38.24
2019-03-13T07:15:00.537Z,38.26
2019-03-13T07:16:00.467Z,38.23
2019-03-13T07:17:00.567Z,38.27
2019-03-13T07:18:00.761Z,38.19
2019-03-13T07:19:00.473Z,38.22
2019-03-13T07:20:00.520Z,38.18
2019-03-13T07:21:00.348Z,38.29
2019-03-13T07:22:00.361Z,38.25
2019-03-13T07:23:00.510Z,38.27
2019-03-13T07:24:00.392Z,38.28
2019-03-13T07:25:00.514Z,38.28
2019-03-13T07:26:00.515Z,38.25
2019-03-13T07:27:00.401Z,38.31
2019-03-13T07:28:00.607Z,38.32
2019-03-13T07:29:12.759Z,38.28
2019-03-13T07:30:00.539Z,38.32
2019-03-13T07:31:00.494Z,38.29
2019-03-13T07:32:00.554Z,38.28
2019-03-13T07:33:00.376Z,38.23
2019-03-13T07:34:00.458Z,38.28
2019-03-13T07:35:00.483Z,38.35
2019-03-13T07:36:00.372Z,38.29
2019-03-13T07:37:00.476Z,38.3
2019-03-13T07:38:00.594Z,38.17
2019-03-13T07:39:00.422Z,38.29
2019-03-13T07:40:00.461Z,38.16
2019-03-13T07:41:00.597Z,38.28
2019-03-13T07:42:00.394Z,38.22
2019-03-13T07:43:00.426Z,38.18
2019-03-13T07:44:00.522Z,38.3
2019-03-13T07:45:00.461Z,38.29
2019-03-13T07:46:00.432Z,38.33
2019-03-13T07:47:00.547Z,38.31
2019-03-13T07:48:00.390Z,38.37
2019-03-13T07:49:00.401Z,38.14
2019-03-13T07:50:00.594Z,38.27
2019-03-13T07:51:00.383Z,38.29
2019-03-13T07:52:00.712Z,38.25
2019-03-13T07:53:00.543Z,38.37
2019-03-13T07:54:00.356Z,38.31
2019-03-13T07:55:00.404Z,38.26
2019-03-13T07:56:00.520Z,38.3
2019-03-13T07:57:00.408Z,38.25
2019-03-13T07:58:00.398Z,38.31
2019-03-13T07:59:00.596Z,38.26
2019-03-13T08:00:00.573Z,38.33
2019-03-13T08:01:00.558Z,38.3
2019-03-13T08:02:00.265Z,38.32
2019-03-13T08:03:00.436Z,38.36
2019-03-13T08:04:00.490Z,38.33
2019-03-13T08:05:00.481Z,38.32
2019-03-13T08:06:00.456Z,38.28
2019-03-13T08:07:00.586Z,38.29
2019-03-13T08:08:00.317Z,38.26
2019-03-13T08:09:00.492Z,38.32
2019-03-13T08:10:00.518Z,38.32
2019-03-13T08:11:00.422Z,38.29
2019-03-13T08:12:00.457Z,38.34
2019-03-13T08:13:00.329Z,38.3
2019-03-13T08:14:00.400Z,38.27
2019-03-13T08:15:00.655Z,38.36
2019-03-13T08:16:00.303Z,38.28
2019-03-13T08:17:00.334Z,38.27
2019-03-13T08:18:00.474Z,38.25
2019-03-13T08:19:00.389Z,38.34
2019-03-13T08:20:00.522Z,38.31
2019-03-13T08:21:00.535Z,38.27
2019-03-13T08:22:00.542Z,38.39
2019-03-13T08:23:00.542Z,38.31
2019-03-13T08:24:00.642Z,38.35
2019-03-13T08:25:00.626Z,38.29
2019-03-13T08:26:00.422Z,38.33
2019-03-13T08:27:00.280Z,38.31
2019-03-13T08:28:00.470Z,38.29
2019-03-13T08:29:00.603Z,38.27
2019-03-13T08:30:00.456Z,38.32
2019-03-13T08:31:00.428Z,38.24
2019-03-13T08:32:00.625Z,38.32
2019-03-13T08:33:00.307Z,38.41
2019-03-13T08:34:00.530Z,38.39
2019-03-13T08:35:00.698Z,38.32
2019-03-13T08:36:00.817Z,38.55
2019-03-13T08:37:00.498Z,38.59
2019-03-13T08:38:00.517Z,38.72
2019-03-13T08:39:00.417Z,38.78
2019-03-13T08:40:00.564Z,38.68
2019-03-13T08:41:00.314Z,38.63
2019-03-13T08:42:00.626Z,38.68
2019-03-13T08:43:00.843Z,38.72
2019-03-13T08:44:00.356Z,38.78
2019-03-13T08:45:00.570Z,38.78
2019-03-13T08:46:00.499Z,38.84
2019-03-13T08:47:00.372Z,38.89
2019-03-13T08:48:00.429Z,38.92
2019-03-13T08:49:00.328Z,38.98
2019-03-13T08:50:00.601Z,38.95
2019-03-13T08:51:00.401Z,38.92
2019-03-13T08:52:00.378Z,38.91
2019-03-13T08:53:00.432Z,38.98
2019-03-13T08:54:00.438Z,39.12
2019-03-13T08:55:00.636Z,39.07
2019-03-13T08:56:00.492Z,39.05
2019-03-13T08:57:00.450Z,39.06
2019-03-13T08:58:00.396Z,39.17
2019-03-13T08:59:00.434Z,39.02
2019-03-13T09:00:00.673Z,38.95
2019-03-13T09:01:00.508Z,39.14
2019-03-13T09:02:00.435Z,38.93
2019-03-13T09:03:00.375Z,38.9
2019-03-13T09:04:00.449Z,39.4
2019-03-13T09:05:00.710Z,39.66
2019-03-13T09:06:00.406Z,39.25
2019-03-13T09:07:00.354Z,38.56
2019-03-13T09:08:00.512Z,38.56
2019-03-13T09:09:00.434Z,38.65
2019-03-13T09:10:00.472Z,38.65
2019-03-13T09:11:00.381Z,38.7
2019-03-13T09:12:00.418Z,38.88
2019-03-13T09:13:02.143Z,39.46
2019-03-13T09:14:00.468Z,39.09
2019-03-13T09:15:00.420Z,38.06
2019-03-13T09:16:00.443Z,37.09
2019-03-13T09:17:00.263Z,37.44
2019-03-13T09:18:00.403Z,36.94
2019-03-13T09:19:00.458Z,38.82
2019-03-13T09:20:00.508Z,37.99
2019-03-13T09:21:00.455Z,37.54
2019-03-13T09:22:00.451Z,37.44
2019-03-13T09:23:00.422Z,38.03
2019-03-13T09:24:00.470Z,38.43
2019-03-13T09:25:12.633Z,37.94
2019-03-13T09:26:00.590Z,38.17
2019-03-13T09:27:00.547Z,38.15
2019-03-13T09:28:00.568Z,38.35
2019-03-13T09:29:00.293Z,38.2
2019-03-13T09:30:00.670Z,37.75
2019-03-13T09:31:00.231Z,37.89
2019-03-13T09:32:00.305Z,38.05
2019-03-13T09:33:00.528Z,38.11
2019-03-13T09:34:00.340Z,38.41
2019-03-13T09:35:00.412Z,38.31
2019-03-13T09:36:00.471Z,38.41
2019-03-13T09:37:00.278Z,38.25
2019-03-13T09:38:00.335Z,38.34
2019-03-13T09:39:00.432Z,38.4
2019-03-13T09:40:00.657Z,38.37
2019-03-13T09:41:00.311Z,38.37
2019-03-13T09:42:00.543Z,38.31
2019-03-13T09:43:00.320Z,38.37
2019-03-13T09:44:00.477Z,38.38
2019-03-13T09:45:00.498Z,38.39
2019-03-13T09:46:00.313Z,38.38
2019-03-13T09:47:00.391Z,38.37
2019-03-13T09:48:00.360Z,38.47
2019-03-13T09:49:00.415Z,38.6
2019-03-13T09:50:00.522Z,38.44
2019-03-13T09:51:00.323Z,38.53
2019-03-13T09:52:00.369Z,38.52
2019-03-13T09:53:00.408Z,38.52
2019-03-13T09:54:00.368Z,38.49
2019-03-13T09:55:04.168Z,38.49
2019-03-13T09:56:00.434Z,38.74
2019-03-13T09:57:00.228Z,38.48
2019-03-13T09:58:00.350Z,38.52
2019-03-13T09:59:00.584Z,38.6
2019-03-13T10:00:00.594Z,38.74
2019-03-13T10:01:00.395Z,38.63
2019-03-13T10:02:00.401Z,38.55
2019-03-13T10:03:00.307Z,38.53
2019-03-13T10:04:00.426Z,38.49
2019-03-13T10:05:00.447Z,38.43
2019-03-13T10:06:00.250Z,38.51
2019-03-13T10:07:00.428Z,38.47
2019-03-13T10:08:00.545Z,38.57
2019-03-13T10:09:00.400Z,38.54
2019-03-13T10:10:00.665Z,38.61
2019-03-13T10:11:00.393Z,38.48
2019-03-13T10:12:00.359Z,38.72
2019-03-13T10:13:00.367Z,38.7
2019-03-13T10:14:00.541Z,38.54
2019-03-13T10:15:00.556Z,38.66
2019-03-13T10:16:00.380Z,38.59
2019-03-13T10:17:11.290Z,38.98
2019-03-13T10:18:00.349Z,38.36
2019-03-13T10:19:00.384Z,38.32
2019-03-13T10:20:00.552Z,38.28
2019-03-13T10:21:00.386Z,38.19
2019-03-13T10:22:00.484Z,38.24
2019-03-13T10:23:00.539Z,38.61
2019-03-13T10:24:00.469Z,38.14
2019-03-13T10:25:00.490Z,38.16
2019-03-13T10:26:00.356Z,38.17
2019-03-13T10:27:00.413Z,38.19
2019-03-13T10:28:00.489Z,38.16
2019-03-13T10:29:00.233Z,38.09
2019-03-13T10:30:00.585Z,38.1
2019-03-13T10:31:00.482Z,38.07
2019-03-13T10:32:00.214Z,38.07
2019-03-13T10:33:00.398Z,38.42
2019-03-13T10:34:00.459Z,38.67
2019-03-13T10:35:00.539Z,38.71
2019-03-13T10:36:00.444Z,38.62
2019-03-13T10:37:00.490Z,38.65
2019-03-13T10:38:14.320Z,38.68
2019-03-13T10:39:00.181Z,38.52
2019-03-13T10:40:00.508Z,38.88
2019-03-13T10:41:00.712Z,38.4
2019-03-13T10:42:00.370Z,38.24
2019-03-13T10:43:00.389Z,38.29
2019-03-13T10:44:00.507Z,38.15
2019-03-13T10:45:00.509Z,38.14
2019-03-13T10:46:00.348Z,38.1
2019-03-13T10:47:00.415Z,38.2
2019-03-13T10:48:00.380Z,38.06
2019-03-13T10:49:00.381Z,38.03
2019-03-13T10:50:00.547Z,38.03
2019-03-13T10:51:00.286Z,38.02
2019-03-13T10:52:00.434Z,38.03
2019-03-13T10:53:00.422Z,38.08
2019-03-13T10:54:00.596Z,38.16
2019-03-13T10:55:00.517Z,37.07
2019-03-13T10:56:00.273Z,36.36
2019-03-13T10:57:00.334Z,37.09
2019-03-13T10:58:00.450Z,37.21
2019-03-13T10:59:00.362Z,37.48
2019-03-13T11:00:00.462Z,37.42
2019-03-13T11:01:00.434Z,37.84
2019-03-13T11:02:00.338Z,37.75
2019-03-13T11:03:00.448Z,37.81
2019-03-13T11:04:00.200Z,37.92
2019-03-13T11:05:00.657Z,37.87
2019-03-13T11:06:00.507Z,37.99
2019-03-13T11:07:00.171Z,37.98
2019-03-13T11:08:00.398Z,38.04
2019-03-13T11:09:00.481Z,38.06
2019-03-13T11:10:00.598Z,38.07
2019-03-13T11:11:00.378Z,38.03
2019-03-13T11:12:00.425Z,38.1
2019-03-13T11:13:00.354Z,38.08
2019-03-13T11:14:00.436Z,38.09
2019-03-13T11:15:00.530Z,38.07
2019-03-13T11:16:00.439Z,38.09
2019-03-13T11:17:00.465Z,38.13
2019-03-13T11:18:00.258Z,38.13
2019-03-13T11:19:00.235Z,38.1
2019-03-13T11:20:00.564Z,38.12
2019-03-13T11:21:00.253Z,38.1
2019-03-13T11:22:00.299Z,38.09
2019-03-13T11:23:00.503Z,38.13
2019-03-13T11:24:01.210Z,38.13
2019-03-13T11:25:00.494Z,38.13
2019-03-13T11:26:00.495Z,38.12
2019-03-13T11:27:00.312Z,38.15
2019-03-13T11:28:00.341Z,38.14
2019-03-13T11:29:00.263Z,38.18
2019-03-13T11:30:00.550Z,38.14
2019-03-13T11:31:00.431Z,38.14
2019-03-13T11:32:00.195Z,38.14
2019-03-13T11:33:00.387Z,38.18
2019-03-13T11:34:00.380Z,38.16
2019-03-13T11:35:00.513Z,38.1
2019-03-13T11:36:00.751Z,38.13
2019-03-13T11:37:00.357Z,38.13
2019-03-13T11:38:00.243Z,38.13
2019-03-13T11:39:00.383Z,38.13
2019-03-13T11:40:00.596Z,38.12
2019-03-13T11:41:00.279Z,38.13
2019-03-13T11:42:00.373Z,38.11
2019-03-13T11:43:00.266Z,38.1
2019-03-13T11:44:00.410Z,38.13
2019-03-13T11:45:00.464Z,38.12
2019-03-13T11:46:00.266Z,38.09
2019-03-13T11:47:00.289Z,38.09
2019-03-13T11:48:00.597Z,38.14
2019-03-13T11:49:00.278Z,38.1
2019-03-13T11:50:00.668Z,38.11
2019-03-13T11:51:00.513Z,38.1
2019-03-13T11:52:00.284Z,38.09
2019-03-13T11:53:00.330Z,38.05
2019-03-13T11:54:00.201Z,38.09
2019-03-13T11:55:00.414Z,38.07
2019-03-13T11:56:00.384Z,38.06
2019-03-13T11:57:00.393Z,38.04
2019-03-13T11:58:00.351Z,38.03
2019-03-13T11:59:00.392Z,38.06
2019-03-13T12:00:00.539Z,38.02
2019-03-13T12:01:00.532Z,38.06
2019-03-13T12:02:00.530Z,37.99
2019-03-13T12:03:00.355Z,38.04
2019-03-13T12:04:00.386Z,38
2019-03-13T12:05:00.571Z,38.03
2019-03-13T12:06:00.404Z,38.01
2019-03-13T12:07:00.419Z,38.05
2019-03-13T12:08:00.341Z,38.05
2019-03-13T12:09:00.396Z,37.99
2019-03-13T12:10:00.492Z,37.98
2019-03-13T12:11:00.337Z,38
2019-03-13T12:12:00.338Z,37.98
2019-03-13T12:13:00.466Z,38.03
2019-03-13T12:14:00.407Z,38.04
2019-03-13T12:15:00.540Z,38
2019-03-13T12:16:00.470Z,37.98
2019-03-13T12:17:00.279Z,37.99
2019-03-13T12:18:00.459Z,37.98
2019-03-13T12:19:00.572Z,38
2019-03-13T12:20:00.432Z,37.99
2019-03-13T12:21:00.349Z,37.94
2019-03-13T12:22:00.284Z,37.97
2019-03-13T12:23:00.358Z,37.96
2019-03-13T12:24:00.485Z,37.97
2019-03-13T12:25:00.511Z,37.93
2019-03-13T12:26:03.629Z,37.97
2019-03-13T12:27:00.408Z,37.94
2019-03-13T12:28:00.304Z,37.92
2019-03-13T12:29:00.311Z,37.98
2019-03-13T12:30:00.501Z,38
2019-03-13T12:31:00.153Z,37.94
2019-03-13T12:32:00.358Z,37.94
2019-03-13T12:33:00.488Z,37.92
2019-03-13T12:34:00.205Z,37.94
2019-03-13T12:35:00.442Z,37.94
2019-03-13T12:36:00.934Z,37.91
2019-03-13T12:37:00.328Z,37.94
2019-03-13T12:38:00.443Z,37.89
2019-03-13T12:39:00.913Z,38.05
2019-03-13T12:40:00.520Z,38.11
2019-03-13T12:41:00.364Z,38.19
2019-03-13T12:42:00.531Z,38.24
2019-03-13T12:43:00.280Z,38.23
2019-03-13T12:44:00.326Z,38.28
2019-03-13T12:45:00.554Z,38.33
2019-03-13T12:46:00.221Z,38.37
2019-03-13T12:47:00.264Z,38.41
2019-03-13T12:48:00.370Z,38.3
2019-03-13T12:49:00.237Z,38.23
2019-03-13T12:50:00.448Z,38.19
2019-03-13T12:51:00.310Z,38.11
2019-03-13T12:52:00.286Z,38.01
2019-03-13T12:53:00.404Z,38.25
2019-03-13T12:54:00.256Z,38.24
2019-03-13T12:55:02.985Z,38.06
2019-03-13T12:56:00.411Z,38.13